createdAt,value
2022-08-14T00:02:27.094Z,21.90
2022-08-14T00:04:55.671Z,21.87
2022-08-14T00:07:24.991Z,21.83
2022-08-14T00:10:01.771Z,21.82
2022-08-14T00:12:53.433Z,21.79
2022-08-14T00:15:29.665Z,21.77
2022-08-14T00:18:06.746Z,21.75
2022-08-14T00:20:42.887Z,21.70
2022-08-14T00:23:16.723Z,21.68
2022-08-14T00:25:53.820Z,21.65
2022-08-14T00:28:35.261Z,21.60
2022-08-14T00:31:06.561Z,21.58
2022-08-14T00:33:51.955Z,21.56
2022-08-14T00:36:36.688Z,21.55
2022-08-14T00:39:15.010Z,21.52
2022-08-14T00:41:46.668Z,21.48
2022-08-14T00:44:15.254Z,21.47
2022-08-14T00:46:54.593Z,21.45
2022-08-14T00:49:30.004Z,21.42
2022-08-14T00:52:00.557Z,21.38
2022-08-14T00:54:30.973Z,21.36
2022-08-14T00:56:58.961Z,21.33
2022-08-14T00:59:28.967Z,21.31
2022-08-14T01:01:59.724Z,21.28
2022-08-14T01:04:38.383Z,21.27
2022-08-14T01:07:22.032Z,21.27
2022-08-14T01:09:54.279Z,21.27
2022-08-14T01:12:26.979Z,21.26
2022-08-14T01:14:59.531Z,21.26
2022-08-14T01:17:50.809Z,21.23
2022-08-14T01:20:39.949Z,21.21
2022-08-14T01:23:16.047Z,21.19
2022-08-14T01:25:47.706Z,21.14
2022-08-14T01:28:47.251Z,21.11
2022-08-14T01:31:05.991Z,21.10
2022-08-14T01:33:44.683Z,21.12
2022-08-14T01:36:23.765Z,21.12
2022-08-14T01:38:55.440Z,21.15
2022-08-14T01:41:30.267Z,21.17
2022-08-14T01:44:02.361Z,21.18
2022-08-14T01:46:36.961Z,21.19
2022-08-14T01:49:07.956Z,21.20
2022-08-14T01:51:36.782Z,21.18
2022-08-14T01:54:09.376Z,21.15
2022-08-14T01:56:39.764Z,21.16
2022-08-14T01:59:09.715Z,21.21
2022-08-14T02:01:41.770Z,21.24
2022-08-14T02:04:40.783Z,21.26
2022-08-14T02:06:59.351Z,21.30
2022-08-14T02:09:30.390Z,21.31
2022-08-14T02:11:59.876Z,21.32
2022-08-14T02:14:32.133Z,21.29
2022-08-14T02:17:00.953Z,21.28
2022-08-14T02:19:32.404Z,21.27
2022-08-14T02:22:03.411Z,21.26
2022-08-14T02:24:39.154Z,21.25
2022-08-14T02:28:24.029Z,21.21
2022-08-14T02:30:00.927Z,21.14
2022-08-14T02:32:36.466Z,21.12
2022-08-14T02:35:18.574Z,21.06
2022-08-14T02:37:49.133Z,21.01
2022-08-14T02:40:19.963Z,20.96
2022-08-14T02:42:54.890Z,20.94
2022-08-14T02:45:33.292Z,20.92
2022-08-14T02:48:10.381Z,20.92
2022-08-14T02:50:55.716Z,20.91
2022-08-14T02:53:23.762Z,20.89
2022-08-14T02:55:53.770Z,20.89
2022-08-14T02:58:30.460Z,20.85
2022-08-14T03:00:59.895Z,20.81
2022-08-14T03:03:31.727Z,20.80
2022-08-14T03:06:03.430Z,20.75
2022-08-14T03:08:33.551Z,20.74
2022-08-14T03:11:06.566Z,20.69
2022-08-14T03:13:36.358Z,20.64
2022-08-14T03:16:08.918Z,20.63
2022-08-14T03:18:41.538Z,20.59
2022-08-14T03:21:13.434Z,20.56
2022-08-14T03:23:42.203Z,20.52
2022-08-14T03:26:18.152Z,20.50
2022-08-14T03:28:48.323Z,20.47
2022-08-14T03:31:16.768Z,20.44
2022-08-14T03:33:45.325Z,20.42
2022-08-14T03:37:38.050Z,20.38
2022-08-14T03:39:20.986Z,20.36
2022-08-14T03:41:52.073Z,20.32
2022-08-14T03:45:19.716Z,20.27
2022-08-14T03:47:08.517Z,20.20
2022-08-14T03:49:42.585Z,20.24
2022-08-14T03:52:27.803Z,20.19
2022-08-14T03:55:00.387Z,20.22
2022-08-14T03:57:32.372Z,20.20
2022-08-14T04:00:06.115Z,20.23
2022-08-14T04:02:47.397Z,20.24
2022-08-14T04:05:16.375Z,20.24
2022-08-14T04:07:49.681Z,20.26
2022-08-14T04:10:32.069Z,20.26
2022-08-14T04:13:04.220Z,20.26
2022-08-14T04:15:56.370Z,20.25
2022-08-14T04:18:20.791Z,20.22
2022-08-14T04:20:54.751Z,20.20
2022-08-14T04:23:29.998Z,20.19
2022-08-14T04:26:02.144Z,20.15
2022-08-14T04:29:01.991Z,20.12
2022-08-14T04:32:56.394Z,20.10
2022-08-14T04:34:20.925Z,20.12
2022-08-14T04:37:13.702Z,20.12
2022-08-14T04:40:08.710Z,20.11
2022-08-14T04:42:54.968Z,20.13
2022-08-14T04:45:29.497Z,20.18
2022-08-14T04:48:39.974Z,20.19
2022-08-14T04:51:06.489Z,20.23
2022-08-14T04:53:42.819Z,20.27
2022-08-14T04:56:31.553Z,20.29
2022-08-14T04:59:09.629Z,20.32
2022-08-14T05:01:44.744Z,20.32
2022-08-14T05:04:16.087Z,20.38
2022-08-14T05:06:44.328Z,20.44
2022-08-14T05:09:14.373Z,20.44
2022-08-14T05:11:44.347Z,20.45
2022-08-14T05:14:42.850Z,20.52
2022-08-14T05:17:02.392Z,20.55
2022-08-14T05:19:32.120Z,20.54
2022-08-14T05:22:17.287Z,20.61
2022-08-14T05:24:49.703Z,20.68
2022-08-14T05:27:23.228Z,20.68
2022-08-14T05:29:53.848Z,20.73
2022-08-14T05:32:27.307Z,20.80
2022-08-14T05:34:58.028Z,20.85
2022-08-14T05:37:26.577Z,20.93
2022-08-14T05:39:54.928Z,20.92
2022-08-14T05:42:29.037Z,20.97
2022-08-14T05:44:57.725Z,21.01
2022-08-14T05:47:28.583Z,21.06
2022-08-14T05:49:58.372Z,21.13
2022-08-14T05:52:39.128Z,21.13
2022-08-14T05:55:10.110Z,21.20
2022-08-14T05:57:47.968Z,21.31
2022-08-14T06:00:25.003Z,21.36
2022-08-14T06:03:00.436Z,21.41
2022-08-14T06:05:29.653Z,21.41
2022-08-14T06:07:58.707Z,21.43
2022-08-14T06:10:28.257Z,21.54
2022-08-14T06:12:57.982Z,21.53
2022-08-14T06:15:30.016Z,21.60
2022-08-14T06:18:01.778Z,21.67
2022-08-14T06:20:30.647Z,21.77
2022-08-14T06:22:59.284Z,21.80
2022-08-14T06:25:28.134Z,21.83
2022-08-14T06:27:58.003Z,21.91
2022-08-14T06:30:30.395Z,21.97
2022-08-14T06:33:17.991Z,22.07
2022-08-14T06:35:47.227Z,22.11
2022-08-14T06:38:20.427Z,22.14
2022-08-14T06:40:52.217Z,22.18
2022-08-14T06:43:28.405Z,22.26
2022-08-14T06:46:00.961Z,22.32
2022-08-14T06:48:32.750Z,22.36
2022-08-14T06:51:03.426Z,22.43
2022-08-14T06:53:31.339Z,22.48
2022-08-14T06:56:01.980Z,22.51
2022-08-14T06:58:31.886Z,22.61
2022-08-14T07:01:27.073Z,22.68
2022-08-14T07:04:22.915Z,22.77
2022-08-14T07:06:51.436Z,22.90
2022-08-14T07:09:43.865Z,23.00
2022-08-14T07:12:35.001Z,23.09
2022-08-14T07:15:17.569Z,23.15
2022-08-14T07:17:46.938Z,23.21
2022-08-14T07:20:30.865Z,23.24
2022-08-14T07:23:07.812Z,23.34
2022-08-14T07:25:38.189Z,23.38
2022-08-14T07:28:21.647Z,23.48
2022-08-14T07:30:52.767Z,23.56
2022-08-14T07:33:29.860Z,23.65
2022-08-14T07:36:01.430Z,23.70
2022-08-14T07:38:35.476Z,23.79
2022-08-14T07:41:14.308Z,23.94
2022-08-14T07:43:47.446Z,24.07
2022-08-14T07:46:29.614Z,24.17
2022-08-14T07:48:59.306Z,24.23
2022-08-14T07:51:34.324Z,24.31
2022-08-14T07:54:06.913Z,24.32
2022-08-14T07:56:47.993Z,24.47
2022-08-14T07:59:18.482Z,24.53
2022-08-14T08:01:51.680Z,24.59
2022-08-14T08:04:38.365Z,24.67
2022-08-14T08:07:07.756Z,24.69
2022-08-14T08:09:37.312Z,24.76
2022-08-14T08:12:09.363Z,24.77
2022-08-14T08:14:56.335Z,24.83
2022-08-14T08:17:42.395Z,24.84
2022-08-14T08:20:20.204Z,24.92
2022-08-14T08:22:55.751Z,24.91
2022-08-14T08:25:24.741Z,24.88
2022-08-14T08:27:57.515Z,24.72
2022-08-14T08:30:26.518Z,24.76
2022-08-14T08:32:56.704Z,24.82
2022-08-14T08:35:46.644Z,24.86
2022-08-14T08:39:17.195Z,24.86
2022-08-14T08:41:11.242Z,24.89
2022-08-14T08:43:46.346Z,25.00
2022-08-14T08:46:23.858Z,25.14
2022-08-14T08:51:25.275Z,25.46
2022-08-14T08:54:03.059Z,25.72
2022-08-14T08:56:40.044Z,26.14
2022-08-14T08:59:20.361Z,26.27
2022-08-14T09:01:52.260Z,26.36
2022-08-14T09:04:24.765Z,26.43
2022-08-14T09:07:10.547Z,26.47
2022-08-14T09:09:54.499Z,26.58
2022-08-14T09:12:32.557Z,26.55
2022-08-14T09:15:02.424Z,26.66
2022-08-14T09:17:30.802Z,26.73
2022-08-14T09:20:02.167Z,26.77
2022-08-14T09:22:47.654Z,26.73
2022-08-14T09:25:19.869Z,26.85
2022-08-14T09:27:48.689Z,26.88
2022-08-14T09:30:32.706Z,26.93
2022-08-14T09:33:22.513Z,27.01
2022-08-14T09:36:18.492Z,27.17
2022-08-14T09:38:50.536Z,27.18
2022-08-14T09:42:20.351Z,27.24
2022-08-14T09:44:45.800Z,27.33
2022-08-14T09:47:15.302Z,27.36
2022-08-14T09:49:43.953Z,27.38
2022-08-14T09:52:32.931Z,27.41
2022-08-14T09:55:03.266Z,27.46
2022-08-14T09:57:33.510Z,27.56
2022-08-14T10:00:28.947Z,27.62
2022-08-14T10:03:05.548Z,27.75
2022-08-14T10:05:39.308Z,27.84
2022-08-14T10:08:26.140Z,27.85
2022-08-14T10:10:57.131Z,27.76
2022-08-14T10:13:42.887Z,27.80
2022-08-14T10:16:27.653Z,27.78
2022-08-14T10:19:07.250Z,27.89
2022-08-14T10:21:38.741Z,27.89
2022-08-14T10:24:36.316Z,27.83
2022-08-14T10:27:06.716Z,28.00
2022-08-14T10:29:38.410Z,27.88
2022-08-14T10:32:17.852Z,27.90
2022-08-14T10:35:13.757Z,28.15
2022-08-14T10:37:46.572Z,28.22
2022-08-14T10:40:38.329Z,28.27
2022-08-14T10:43:04.366Z,28.38
2022-08-14T10:45:46.232Z,28.42
2022-08-14T10:48:24.461Z,28.62
2022-08-14T10:51:04.853Z,28.81
2022-08-14T10:53:39.070Z,28.74
2022-08-14T10:56:21.656Z,28.99
2022-08-14T10:59:02.655Z,29.33
2022-08-14T11:01:41.073Z,29.61
2022-08-14T11:04:27.696Z,29.79
2022-08-14T11:06:56.832Z,29.89
2022-08-14T11:09:26.478Z,29.99
2022-08-14T11:12:36.295Z,30.21
2022-08-14T11:14:59.226Z,30.19
2022-08-14T11:17:32.688Z,30.30
2022-08-14T11:20:06.949Z,30.36
2022-08-14T11:22:57.904Z,30.25
2022-08-14T11:25:43.362Z,30.41
2022-08-14T11:28:18.582Z,30.54
2022-08-14T11:30:53.445Z,30.61
2022-08-14T11:33:24.977Z,30.68
2022-08-14T11:35:53.679Z,30.82
2022-08-14T11:38:29.142Z,30.47
2022-08-14T11:40:58.209Z,30.27
2022-08-14T11:43:29.440Z,30.17
2022-08-14T11:45:58.801Z,30.23
2022-08-14T11:49:02.167Z,30.17
2022-08-14T11:51:30.741Z,30.14
2022-08-14T11:54:08.289Z,30.03
2022-08-14T11:56:37.349Z,29.99
2022-08-14T11:59:10.303Z,30.02
2022-08-14T12:01:41.418Z,30.01
2022-08-14T12:04:32.480Z,29.95
2022-08-14T12:07:03.478Z,30.11
2022-08-14T12:09:32.956Z,30.18
2022-08-14T12:12:01.386Z,30.20
2022-08-14T12:14:35.066Z,30.08
2022-08-14T12:17:11.860Z,30.17
2022-08-14T12:19:51.318Z,30.08
2022-08-14T12:22:35.329Z,30.21
2022-08-14T12:25:10.045Z,30.26
2022-08-14T12:27:52.689Z,30.39
2022-08-14T12:30:35.993Z,30.48
2022-08-14T12:33:09.166Z,30.66
2022-08-14T12:35:43.365Z,30.71
2022-08-14T12:38:19.438Z,30.60
2022-08-14T12:40:50.189Z,30.61
2022-08-14T12:43:19.806Z,30.60
2022-08-14T12:45:51.139Z,30.52
2022-08-14T12:48:31.543Z,30.43
2022-08-14T12:51:01.656Z,30.58
2022-08-14T12:53:38.912Z,30.74
2022-08-14T12:56:22.211Z,30.90
2022-08-14T12:58:57.924Z,30.83
2022-08-14T13:01:28.777Z,30.82
2022-08-14T13:04:07.259Z,30.97
2022-08-14T13:06:37.595Z,31.04
2022-08-14T13:09:11.088Z,30.79
2022-08-14T13:11:44.925Z,30.62
2022-08-14T13:14:17.889Z,30.65
2022-08-14T13:16:50.391Z,30.75
2022-08-14T13:19:19.988Z,30.91
2022-08-14T13:21:58.670Z,30.95
2022-08-14T13:24:33.651Z,31.21
2022-08-14T13:27:04.724Z,31.34
2022-08-14T13:29:40.470Z,31.11
2022-08-14T13:32:10.002Z,31.06
2022-08-14T13:34:40.637Z,31.15
2022-08-14T13:37:11.020Z,31.24
2022-08-14T13:39:56.116Z,31.31
2022-08-14T13:42:30.838Z,31.30
2022-08-14T13:45:06.423Z,31.41
2022-08-14T13:47:35.826Z,31.44
2022-08-14T13:50:07.611Z,31.71
2022-08-14T13:52:52.652Z,31.60
2022-08-14T13:55:23.975Z,31.71
2022-08-14T13:58:03.573Z,31.71
2022-08-14T14:00:35.690Z,31.63
2022-08-14T14:03:21.954Z,31.64
2022-08-14T14:05:54.349Z,31.63
2022-08-14T14:08:46.748Z,31.38
2022-08-14T14:11:16.055Z,31.45
2022-08-14T14:13:45.986Z,31.55
2022-08-14T14:16:26.679Z,31.67
2022-08-14T14:19:09.852Z,31.53
2022-08-14T14:21:40.736Z,31.58
2022-08-14T14:24:14.786Z,31.47
2022-08-14T14:26:46.521Z,31.53
2022-08-14T14:29:16.798Z,31.68
2022-08-14T14:31:49.295Z,31.83
2022-08-14T14:34:29.082Z,32.10
2022-08-14T14:37:04.504Z,32.18
2022-08-14T14:40:50.704Z,32.24
2022-08-14T14:42:31.858Z,31.97
2022-08-14T14:45:06.112Z,32.01
2022-08-14T14:47:35.173Z,32.03
2022-08-14T14:50:06.545Z,31.97
2022-08-14T14:52:37.243Z,31.94
2022-08-14T14:55:12.299Z,31.93
2022-08-14T14:57:41.069Z,31.90
2022-08-14T15:00:18.572Z,31.94
2022-08-14T15:02:49.735Z,32.07
2022-08-14T15:05:20.903Z,32.30
2022-08-14T15:07:52.983Z,32.17
2022-08-14T15:10:27.089Z,32.39
2022-08-14T15:13:00.035Z,32.33
2022-08-14T15:15:28.518Z,32.43
2022-08-14T15:18:01.108Z,32.31
2022-08-14T15:20:30.623Z,32.15
2022-08-14T15:23:00.749Z,32.24
2022-08-14T15:25:31.883Z,32.19
2022-08-14T15:28:00.781Z,32.21
2022-08-14T15:30:32.478Z,32.28
2022-08-14T15:33:00.709Z,32.21
2022-08-14T15:35:29.677Z,31.92
2022-08-14T15:37:57.681Z,32.08
2022-08-14T15:40:26.470Z,32.03
2022-08-14T15:42:55.998Z,31.84
2022-08-14T15:45:23.893Z,32.06
2022-08-14T15:47:53.100Z,32.17
2022-08-14T15:50:21.026Z,32.27
2022-08-14T15:52:51.593Z,32.18
2022-08-14T15:55:23.023Z,32.28
2022-08-14T15:58:03.537Z,32.46
2022-08-14T16:00:53.093Z,32.48
2022-08-14T16:03:24.860Z,32.61
2022-08-14T16:05:56.532Z,32.54
2022-08-14T16:08:29.539Z,32.66
2022-08-14T16:10:59.726Z,32.64
2022-08-14T16:13:42.004Z,32.94
2022-08-14T16:16:49.067Z,33.23
2022-08-14T16:19:09.947Z,33.89
2022-08-14T16:22:02.691Z,34.34
2022-08-14T16:24:33.101Z,34.74
2022-08-14T16:27:01.773Z,35.00
2022-08-14T16:29:30.884Z,35.31
2022-08-14T16:32:01.569Z,34.57
2022-08-14T16:34:44.060Z,34.34
2022-08-14T16:37:16.495Z,34.66
2022-08-14T16:39:45.790Z,34.68
2022-08-14T16:42:39.481Z,34.36
2022-08-14T16:45:05.489Z,34.10
2022-08-14T16:47:36.294Z,34.17
2022-08-14T16:50:08.724Z,34.69
2022-08-14T16:52:44.235Z,35.19
2022-08-14T16:55:14.328Z,35.38
2022-08-14T16:57:54.296Z,35.40
2022-08-14T17:00:44.147Z,35.42
2022-08-14T17:03:14.599Z,35.93
2022-08-14T17:05:46.923Z,36.17
2022-08-14T17:08:31.566Z,35.92
2022-08-14T17:11:09.907Z,35.08
2022-08-14T17:13:58.518Z,34.53
2022-08-14T17:16:35.562Z,34.47
2022-08-14T17:19:13.731Z,34.35
2022-08-14T17:21:46.781Z,34.44
2022-08-14T17:24:57.040Z,34.45
2022-08-14T17:27:07.806Z,34.33
2022-08-14T17:29:44.573Z,34.25
2022-08-14T17:32:56.226Z,34.16
2022-08-14T17:35:16.844Z,34.01
2022-08-14T17:37:55.900Z,34.00
2022-08-14T17:40:31.011Z,33.52
2022-08-14T17:43:02.362Z,33.26
2022-08-14T17:45:46.662Z,32.68
2022-08-14T17:49:13.907Z,32.37
2022-08-14T17:51:23.618Z,32.37
2022-08-14T17:54:02.668Z,32.14
2022-08-14T17:56:32.425Z,31.96
2022-08-14T17:59:09.893Z,31.86
2022-08-14T18:01:45.909Z,31.69
2022-08-14T18:04:24.900Z,31.60
2022-08-14T18:07:16.202Z,31.40
2022-08-14T18:09:57.201Z,31.22
2022-08-14T18:12:36.483Z,31.14
2022-08-14T18:15:15.979Z,30.96
2022-08-14T18:17:52.612Z,30.76
2022-08-14T18:21:23.595Z,30.60
2022-08-14T18:23:13.603Z,30.41
2022-08-14T18:25:48.151Z,30.28
2022-08-14T18:28:48.998Z,30.04
2022-08-14T18:31:44.053Z,29.73
2022-08-14T18:34:32.066Z,29.74
2022-08-14T18:37:16.812Z,29.57
2022-08-14T18:40:03.081Z,29.52
2022-08-14T18:42:45.628Z,29.35
2022-08-14T18:45:19.051Z,29.17
2022-08-14T18:48:28.784Z,29.09
2022-08-14T18:51:45.768Z,29.02
2022-08-14T18:54:33.284Z,28.88
2022-08-14T18:57:05.727Z,28.79
2022-08-14T18:59:42.346Z,28.67
2022-08-14T19:02:43.042Z,28.63
2022-08-14T19:05:13.441Z,28.54
2022-08-14T19:07:48.115Z,28.41
2022-08-14T19:10:37.468Z,28.38
2022-08-14T19:13:11.805Z,28.32
2022-08-14T19:15:43.749Z,28.19
2022-08-14T19:18:26.171Z,28.10
2022-08-14T19:20:58.229Z,28.07
2022-08-14T19:23:43.227Z,28.02
2022-08-14T19:26:36.476Z,27.94
2022-08-14T19:29:36.120Z,27.83
2022-08-14T19:32:40.791Z,27.74
2022-08-14T19:36:00.309Z,27.65
2022-08-14T19:38:57.398Z,27.54
2022-08-14T19:41:30.060Z,27.49
2022-08-14T19:44:10.377Z,27.45
2022-08-14T19:47:01.181Z,27.37
2022-08-14T19:50:09.100Z,27.29
2022-08-14T19:52:29.745Z,27.24
2022-08-14T19:54:59.419Z,27.20
2022-08-14T19:57:29.435Z,27.15
2022-08-14T20:00:05.693Z,27.10
2022-08-14T20:03:09.910Z,27.03
2022-08-14T20:05:45.937Z,26.94
2022-08-14T20:11:01.056Z,26.90
2022-08-14T20:11:17.910Z,26.86
2022-08-14T20:14:10.432Z,26.80
2022-08-14T20:16:41.087Z,26.75
2022-08-14T20:19:19.797Z,26.69
2022-08-14T20:21:58.147Z,26.65
2022-08-14T20:24:41.203Z,26.55
2022-08-14T20:27:22.534Z,26.52
2022-08-14T20:30:35.937Z,26.48
2022-08-14T20:33:07.785Z,26.40
2022-08-14T20:35:46.907Z,26.37
2022-08-14T20:38:28.623Z,26.32
2022-08-14T20:41:06.621Z,26.27
2022-08-14T20:43:54.151Z,26.24
2022-08-14T20:46:29.897Z,26.22
2022-08-14T20:48:59.949Z,26.20
2022-08-14T20:51:47.463Z,26.17
2022-08-14T20:54:34.426Z,26.12
2022-08-14T20:57:08.256Z,26.11
2022-08-14T20:59:43.334Z,26.07
2022-08-14T21:02:29.388Z,26.05
2022-08-14T21:05:00.587Z,26.00
2022-08-14T21:07:36.097Z,25.97
2022-08-14T21:10:36.296Z,25.94
2022-08-14T21:13:25.694Z,25.91
2022-08-14T21:15:57.587Z,25.87
2022-08-14T21:18:29.553Z,25.85
2022-08-14T21:20:59.184Z,25.80
2022-08-14T21:23:32.782Z,25.77
2022-08-14T21:26:01.509Z,25.73
2022-08-14T21:28:35.326Z,25.73
2022-08-14T21:31:05.577Z,25.71
2022-08-14T21:33:37.032Z,25.68
2022-08-14T21:36:08.356Z,25.65
2022-08-14T21:38:42.467Z,25.64
2022-08-14T21:41:43.000Z,25.60
2022-08-14T21:44:17.130Z,25.58
2022-08-14T21:46:51.169Z,25.56
2022-08-14T21:49:25.580Z,25.56
2022-08-14T21:52:50.834Z,25.53
2022-08-14T21:54:55.618Z,25.48
2022-08-14T21:57:56.044Z,25.44
2022-08-14T22:00:35.893Z,25.42
2022-08-14T22:03:06.332Z,25.40
2022-08-14T22:05:39.845Z,25.38
2022-08-14T22:08:12.332Z,25.35
2022-08-14T22:10:44.791Z,25.31
2022-08-14T22:13:15.977Z,25.26
2022-08-14T22:15:49.576Z,25.22
2022-08-14T22:18:21.031Z,25.19
2022-08-14T22:20:56.462Z,25.15
2022-08-14T22:23:26.336Z,25.12
2022-08-14T22:25:56.163Z,25.07
2022-08-14T22:28:33.120Z,25.04
2022-08-14T22:31:03.300Z,25.00
2022-08-14T22:33:32.200Z,24.97
2022-08-14T22:36:25.355Z,24.93
2022-08-14T22:38:54.199Z,24.88
2022-08-14T22:41:29.129Z,24.82
2022-08-14T22:44:03.200Z,24.77
2022-08-14T22:46:31.621Z,24.71
2022-08-14T22:48:59.669Z,24.67
2022-08-14T22:51:48.288Z,24.59
2022-08-14T22:54:52.222Z,24.54
2022-08-14T22:57:10.317Z,24.49
2022-08-14T22:59:39.031Z,24.43
2022-08-14T23:02:13.000Z,24.38
2022-08-14T23:04:53.908Z,24.33
2022-08-14T23:09:00.463Z,24.29
2022-08-14T23:10:32.370Z,24.23
2022-08-14T23:13:03.596Z,24.20
2022-08-14T23:15:32.547Z,24.15
2022-08-14T23:18:03.237Z,24.11
2022-08-14T23:20:31.848Z,24.06
2022-08-14T23:23:03.148Z,24.02
2022-08-14T23:25:59.582Z,23.98
2022-08-14T23:28:33.659Z,23.94
2022-08-14T23:31:14.242Z,23.89
2022-08-14T23:33:46.046Z,23.86
2022-08-14T23:36:32.044Z,23.83
2022-08-14T23:39:10.494Z,23.79
2022-08-14T23:41:45.747Z,23.73
2022-08-14T23:44:15.737Z,23.68
2022-08-14T23:46:44.545Z,23.65
2022-08-14T23:49:12.666Z,23.63
2022-08-14T23:51:40.601Z,23.59
2022-08-14T23:54:48.787Z,23.56
2022-08-14T23:57:03.082Z,23.52
2022-08-14T23:59:32.295Z,23.49
